sensor_id;sensor_type;location;lat;lon;timestamp;P1;durP1;ratioP1;P2;durP2;ratioP2
47866;SDS011;33628;50.806;11.586;2024-01-15T00:00:01;18.75;;;8.00;;
47866;SDS011;33628;50.806;11.586;2024-01-15T00:02:37;25.40;;;9.85;;
47866;SDS011;33628;50.806;11.586;2024-01-15T00:05:04;23.27;;;9.70;;
47866;SDS011;33628;50.806;11.586;2024-01-15T00:07:31;22.58;;;9.07;;
47866;SDS011;33628;50.806;11.586;2024-01-15T00:09:58;31.25;;;10.00;;
47866;SDS011;33628;50.806;11.586;2024-01-15T00:12:24;18.08;;;7.95;;
47866;SDS011;33628;50.806;11.586;2024-01-15T00:14:51;26.05;;;9.60;;
47866;SDS011;33628;50.806;11.586;2024-01-15T00:17:17;22.95;;;8.80;;
47866;SDS011;33628;50.806;11.586;2024-01-15T00:19:45;19.73;;;8.45;;
47866;SDS011;33628;50.806;11.586;2024-01-15T00:22:12;25.58;;;9.35;;
47866;SDS011;33628;50.806;11.586;2024-01-15T00:24:38;23.95;;;9.60;;
47866;SDS011;33628;50.806;11.586;2024-01-15T00:27:05;23.83;;;9.55;;
47866;SDS011;33628;50.806;11.586;2024-01-15T00:29:32;21.80;;;9.25;;
47866;SDS011;33628;50.806;11.586;2024-01-15T00:31:58;21.58;;;9.23;;
47866;SDS011;33628;50.806;11.586;2024-01-15T00:34:25;20.70;;;8.80;;
47866;SDS011;33628;50.806;11.586;2024-01-15T00:36:53;20.08;;;7.95;;
47866;SDS011;33628;50.806;11.586;2024-01-15T00:39:19;21.23;;;9.32;;
47866;SDS011;33628;50.806;11.586;2024-01-15T00:41:46;21.27;;;9.40;;
47866;SDS011;33628;50.806;11.586;2024-01-15T00:44:13;19.30;;;8.38;;
47866;SDS011;33628;50.806;11.586;2024-01-15T00:46:43;27.60;;;10.10;;
47866;SDS011;33628;50.806;11.586;2024-01-15T00:49:10;23.50;;;7.72;;
47866;SDS011;33628;50.806;11.586;2024-01-15T00:51:37;23.70;;;9.48;;
47866;SDS011;33628;50.806;11.586;2024-01-15T00:54:05;22.30;;;9.10;;
47866;SDS011;33628;50.806;11.586;2024-01-15T00:56:32;28.08;;;10.32;;
47866;SDS011;33628;50.806;11.586;2024-01-15T00:59:00;19.83;;;7.70;;
47866;SDS011;33628;50.806;11.586;2024-01-15T01:01:26;28.25;;;10.43;;
47866;SDS011;33628;50.806;11.586;2024-01-15T01:03:53;18.88;;;6.68;;
47866;SDS011;33628;50.806;11.586;2024-01-15T01:06:20;21.42;;;9.23;;
47866;SDS011;33628;50.806;11.586;2024-01-15T01:08:46;23.60;;;9.60;;
47866;SDS011;33628;50.806;11.586;2024-01-15T01:11:14;28.27;;;10.98;;
47866;SDS011;33628;50.806;11.586;2024-01-15T01:13:41;25.50;;;10.60;;
47866;SDS011;33628;50.806;11.586;2024-01-15T01:16:08;26.88;;;10.15;;
47866;SDS011;33628;50.806;11.586;2024-01-15T01:18:35;22.25;;;9.18;;
47866;SDS011;33628;50.806;11.586;2024-01-15T01:21:02;24.88;;;9.98;;
47866;SDS011;33628;50.806;11.586;2024-01-15T01:23:29;33.88;;;10.45;;
47866;SDS011;33628;50.806;11.586;2024-01-15T01:25:55;27.55;;;11.63;;
47866;SDS011;33628;50.806;11.586;2024-01-15T01:28:23;25.65;;;10.90;;
47866;SDS011;33628;50.806;11.586;2024-01-15T01:30:50;29.73;;;11.13;;
47866;SDS011;33628;50.806;11.586;2024-01-15T01:33:17;18.70;;;8.77;;
47866;SDS011;33628;50.806;11.586;2024-01-15T01:35:43;21.92;;;9.02;;
47866;SDS011;33628;50.806;11.586;2024-01-15T01:38:11;36.30;;;11.35;;
47866;SDS011;33628;50.806;11.586;2024-01-15T01:40:37;25.10;;;9.00;;
47866;SDS011;33628;50.806;11.586;2024-01-15T01:43:04;29.80;;;11.07;;
47866;SDS011;33628;50.806;11.586;2024-01-15T01:45:32;25.25;;;9.95;;
47866;SDS011;33628;50.806;11.586;2024-01-15T01:47:59;25.50;;;8.82;;
47866;SDS011;33628;50.806;11.586;2024-01-15T01:50:27;22.75;;;10.23;;
47866;SDS011;33628;50.806;11.586;2024-01-15T01:52:53;20.90;;;7.97;;
47866;SDS011;33628;50.806;11.586;2024-01-15T01:55:20;17.88;;;6.65;;
47866;SDS011;33628;50.806;11.586;2024-01-15T01:57:47;23.30;;;9.52;;
47866;SDS011;33628;50.806;11.586;2024-01-15T02:00:15;18.42;;;6.70;;
47866;SDS011;33628;50.806;11.586;2024-01-15T02:02:43;22.50;;;9.15;;
47866;SDS011;33628;50.806;11.586;2024-01-15T02:05:10;16.95;;;6.75;;
47866;SDS011;33628;50.806;11.586;2024-01-15T02:07:38;19.52;;;8.65;;
47866;SDS011;33628;50.806;11.586;2024-01-15T02:10:05;17.50;;;7.38;;
47866;SDS011;33628;50.806;11.586;2024-01-15T02:12:32;18.70;;;7.45;;
47866;SDS011;33628;50.806;11.586;2024-01-15T02:14:59;22.40;;;9.35;;
47866;SDS011;33628;50.806;11.586;2024-01-15T02:17:25;22.20;;;8.98;;
47866;SDS011;33628;50.806;11.586;2024-01-15T02:19:53;17.08;;;6.88;;
47866;SDS011;33628;50.806;11.586;2024-01-15T02:22:20;19.30;;;6.70;;
47866;SDS011;33628;50.806;11.586;2024-01-15T02:24:48;22.52;;;8.68;;
47866;SDS011;33628;50.806;11.586;2024-01-15T02:27:15;24.25;;;9.80;;
47866;SDS011;33628;50.806;11.586;2024-01-15T02:29:42;17.58;;;7.55;;
47866;SDS011;33628;50.806;11.586;2024-01-15T02:32:09;21.27;;;8.65;;
47866;SDS011;33628;50.806;11.586;2024-01-15T02:34:35;22.85;;;8.98;;
47866;SDS011;33628;50.806;11.586;2024-01-15T02:37:02;23.60;;;8.45;;
47866;SDS011;33628;50.806;11.586;2024-01-15T02:39:29;21.73;;;8.23;;
47866;SDS011;33628;50.806;11.586;2024-01-15T02:41:57;29.70;;;10.95;;
47866;SDS011;33628;50.806;11.586;2024-01-15T02:44:23;27.67;;;10.45;;
47866;SDS011;33628;50.806;11.586;2024-01-15T02:46:50;31.25;;;10.45;;
47866;SDS011;33628;50.806;11.586;2024-01-15T02:49:16;28.33;;;8.07;;
47866;SDS011;33628;50.806;11.586;2024-01-15T02:51:43;18.42;;;7.53;;
47866;SDS011;33628;50.806;11.586;2024-01-15T02:54:09;23.95;;;9.23;;
47866;SDS011;33628;50.806;11.586;2024-01-15T02:56:36;18.52;;;6.78;;
47866;SDS011;33628;50.806;11.586;2024-01-15T02:59:04;22.27;;;9.05;;
47866;SDS011;33628;50.806;11.586;2024-01-15T03:01:31;28.48;;;10.27;;
47866;SDS011;33628;50.806;11.586;2024-01-15T03:03:57;25.90;;;9.15;;
47866;SDS011;33628;50.806;11.586;2024-01-15T03:06:24;22.90;;;8.68;;
47866;SDS011;33628;50.806;11.586;2024-01-15T03:08:50;19.77;;;8.27;;
47866;SDS011;33628;50.806;11.586;2024-01-15T03:11:17;23.50;;;7.30;;
47866;SDS011;33628;50.806;11.586;2024-01-15T03:13:44;18.13;;;8.05;;
47866;SDS011;33628;50.806;11.586;2024-01-15T03:16:11;23.02;;;9.63;;
47866;SDS011;33628;50.806;11.586;2024-01-15T03:18:38;20.23;;;8.63;;
47866;SDS011;33628;50.806;11.586;2024-01-15T03:21:05;23.67;;;8.65;;
47866;SDS011;33628;50.806;11.586;2024-01-15T03:23:32;23.83;;;8.43;;
47866;SDS011;33628;50.806;11.586;2024-01-15T03:25:59;23.92;;;9.30;;
47866;SDS011;33628;50.806;11.586;2024-01-15T03:28:25;25.17;;;9.15;;
47866;SDS011;33628;50.806;11.586;2024-01-15T03:30:52;20.70;;;7.05;;
47866;SDS011;33628;50.806;11.586;2024-01-15T03:33:20;25.17;;;9.43;;
47866;SDS011;33628;50.806;11.586;2024-01-15T03:35:47;20.33;;;8.23;;
47866;SDS011;33628;50.806;11.586;2024-01-15T03:38:13;24.98;;;9.00;;
47866;SDS011;33628;50.806;11.586;2024-01-15T03:40:40;21.25;;;9.30;;
47866;SDS011;33628;50.806;11.586;2024-01-15T03:43:07;18.92;;;7.15;;
47866;SDS011;33628;50.806;11.586;2024-01-15T03:45:33;22.75;;;8.23;;
47866;SDS011;33628;50.806;11.586;2024-01-15T03:48:00;20.20;;;8.80;;
47866;SDS011;33628;50.806;11.586;2024-01-15T03:50:28;13.32;;;6.40;;
47866;SDS011;33628;50.806;11.586;2024-01-15T03:52:54;21.50;;;7.53;;
47866;SDS011;33628;50.806;11.586;2024-01-15T03:55:21;19.80;;;7.70;;
47866;SDS011;33628;50.806;11.586;2024-01-15T03:57:48;20.85;;;8.25;;
47866;SDS011;33628;50.806;11.586;2024-01-15T04:00:15;24.98;;;9.00;;
47866;SDS011;33628;50.806;11.586;2024-01-15T04:02:43;19.85;;;7.97;;
47866;SDS011;33628;50.806;11.586;2024-01-15T04:05:10;20.65;;;7.78;;
47866;SDS011;33628;50.806;11.586;2024-01-15T04:07:38;15.73;;;5.78;;
47866;SDS011;33628;50.806;11.586;2024-01-15T04:10:05;16.60;;;7.05;;
47866;SDS011;33628;50.806;11.586;2024-01-15T04:12:32;16.20;;;6.60;;
47866;SDS011;33628;50.806;11.586;2024-01-15T04:14:58;14.52;;;6.40;;
47866;SDS011;33628;50.806;11.586;2024-01-15T04:17:25;14.60;;;6.35;;
47866;SDS011;33628;50.806;11.586;2024-01-15T04:19:51;17.55;;;6.22;;
47866;SDS011;33628;50.806;11.586;2024-01-15T04:22:18;13.05;;;5.68;;
47866;SDS011;33628;50.806;11.586;2024-01-15T04:24:46;18.27;;;6.50;;
47866;SDS011;33628;50.806;11.586;2024-01-15T04:27:12;14.63;;;6.43;;
47866;SDS011;33628;50.806;11.586;2024-01-15T04:29:40;14.48;;;5.93;;
47866;SDS011;33628;50.806;11.586;2024-01-15T04:32:06;14.25;;;6.03;;
47866;SDS011;33628;50.806;11.586;2024-01-15T04:34:33;18.08;;;6.43;;
47866;SDS011;33628;50.806;11.586;2024-01-15T04:36:59;16.02;;;6.10;;
47866;SDS011;33628;50.806;11.586;2024-01-15T04:39:26;12.80;;;6.15;;
47866;SDS011;33628;50.806;11.586;2024-01-15T04:41:54;14.52;;;6.13;;
47866;SDS011;33628;50.806;11.586;2024-01-15T04:44:20;15.50;;;7.20;;
47866;SDS011;33628;50.806;11.586;2024-01-15T04:46:47;14.63;;;6.90;;
47866;SDS011;33628;50.806;11.586;2024-01-15T04:49:14;15.82;;;6.13;;
47866;SDS011;33628;50.806;11.586;2024-01-15T04:51:40;16.85;;;6.60;;
47866;SDS011;33628;50.806;11.586;2024-01-15T04:54:07;10.43;;;4.63;;
47866;SDS011;33628;50.806;11.586;2024-01-15T04:56:33;12.00;;;5.57;;
47866;SDS011;33628;50.806;11.586;2024-01-15T04:59:01;15.20;;;5.45;;
47866;SDS011;33628;50.806;11.586;2024-01-15T05:01:30;10.90;;;4.68;;
47866;SDS011;33628;50.806;11.586;2024-01-15T05:03:58;12.80;;;5.70;;
47866;SDS011;33628;50.806;11.586;2024-01-15T05:06:24;12.05;;;5.25;;
47866;SDS011;33628;50.806;11.586;2024-01-15T05:08:51;10.35;;;5.00;;
47866;SDS011;33628;50.806;11.586;2024-01-15T05:11:17;12.80;;;4.95;;
47866;SDS011;33628;50.806;11.586;2024-01-15T05:13:44;12.43;;;5.82;;
47866;SDS011;33628;50.806;11.586;2024-01-15T05:16:12;18.13;;;5.97;;
47866;SDS011;33628;50.806;11.586;2024-01-15T05:18:39;15.13;;;5.70;;
47866;SDS011;33628;50.806;11.586;2024-01-15T05:21:05;12.25;;;5.18;;
47866;SDS011;33628;50.806;11.586;2024-01-15T05:23:32;8.35;;;3.35;;
47866;SDS011;33628;50.806;11.586;2024-01-15T05:25:58;11.40;;;5.85;;
47866;SDS011;33628;50.806;11.586;2024-01-15T05:28:25;7.45;;;4.03;;
47866;SDS011;33628;50.806;11.586;2024-01-15T05:30:52;12.60;;;6.07;;
47866;SDS011;33628;50.806;11.586;2024-01-15T05:33:20;16.13;;;6.57;;
47866;SDS011;33628;50.806;11.586;2024-01-15T05:35:47;12.20;;;4.78;;
47866;SDS011;33628;50.806;11.586;2024-01-15T05:38:15;10.52;;;5.20;;
47866;SDS011;33628;50.806;11.586;2024-01-15T05:40:41;14.52;;;6.45;;
47866;SDS011;33628;50.806;11.586;2024-01-15T05:43:08;13.55;;;5.95;;
47866;SDS011;33628;50.806;11.586;2024-01-15T05:45:35;9.88;;;4.90;;
47866;SDS011;33628;50.806;11.586;2024-01-15T05:48:01;11.48;;;5.00;;
47866;SDS011;33628;50.806;11.586;2024-01-15T05:50:30;9.30;;;4.68;;
47866;SDS011;33628;50.806;11.586;2024-01-15T05:52:56;9.52;;;4.70;;
47866;SDS011;33628;50.806;11.586;2024-01-15T05:55:23;13.25;;;5.65;;
47866;SDS011;33628;50.806;11.586;2024-01-15T05:57:49;10.55;;;4.78;;
47866;SDS011;33628;50.806;11.586;2024-01-15T06:00:16;11.18;;;5.63;;
47866;SDS011;33628;50.806;11.586;2024-01-15T06:02:43;11.85;;;4.82;;
47866;SDS011;33628;50.806;11.586;2024-01-15T06:05:10;12.77;;;5.70;;
47866;SDS011;33628;50.806;11.586;2024-01-15T06:07:38;15.25;;;6.15;;
47866;SDS011;33628;50.806;11.586;2024-01-15T06:10:05;10.70;;;5.65;;
47866;SDS011;33628;50.806;11.586;2024-01-15T06:12:32;12.43;;;5.25;;
47866;SDS011;33628;50.806;11.586;2024-01-15T06:14:59;15.32;;;5.93;;
47866;SDS011;33628;50.806;11.586;2024-01-15T06:17:25;12.07;;;5.45;;
47866;SDS011;33628;50.806;11.586;2024-01-15T06:19:52;14.23;;;5.57;;
47866;SDS011;33628;50.806;11.586;2024-01-15T06:22:19;13.75;;;6.07;;
47866;SDS011;33628;50.806;11.586;2024-01-15T06:24:47;16.33;;;6.75;;
47866;SDS011;33628;50.806;11.586;2024-01-15T06:27:13;16.05;;;6.55;;
47866;SDS011;33628;50.806;11.586;2024-01-15T06:29:44;16.02;;;6.82;;
47866;SDS011;33628;50.806;11.586;2024-01-15T06:32:11;14.13;;;6.03;;
47866;SDS011;33628;50.806;11.586;2024-01-15T06:34:38;16.05;;;6.30;;
47866;SDS011;33628;50.806;11.586;2024-01-15T06:37:05;14.85;;;6.78;;
47866;SDS011;33628;50.806;11.586;2024-01-15T06:39:31;13.13;;;6.05;;
47866;SDS011;33628;50.806;11.586;2024-01-15T06:42:00;14.32;;;6.30;;
47866;SDS011;33628;50.806;11.586;2024-01-15T06:44:26;15.95;;;7.45;;
47866;SDS011;33628;50.806;11.586;2024-01-15T06:46:53;14.48;;;6.47;;
47866;SDS011;33628;50.806;11.586;2024-01-15T06:49:23;11.85;;;5.40;;
47866;SDS011;33628;50.806;11.586;2024-01-15T06:51:49;17.58;;;6.25;;
47866;SDS011;33628;50.806;11.586;2024-01-15T06:54:16;14.98;;;6.07;;
47866;SDS011;33628;50.806;11.586;2024-01-15T06:56:42;14.85;;;7.13;;
47866;SDS011;33628;50.806;11.586;2024-01-15T06:59:10;11.52;;;5.75;;
47866;SDS011;33628;50.806;11.586;2024-01-15T07:01:37;17.70;;;6.50;;
47866;SDS011;33628;50.806;11.586;2024-01-15T07:07:57;17.20;;;7.47;;
47866;SDS011;33628;50.806;11.586;2024-01-15T07:10:23;15.95;;;6.50;;
47866;SDS011;33628;50.806;11.586;2024-01-15T07:12:50;14.80;;;6.07;;
47866;SDS011;33628;50.806;11.586;2024-01-15T07:15:18;15.43;;;6.30;;
47866;SDS011;33628;50.806;11.586;2024-01-15T07:17:44;15.65;;;7.00;;
47866;SDS011;33628;50.806;11.586;2024-01-15T07:20:11;15.57;;;6.68;;
47866;SDS011;33628;50.806;11.586;2024-01-15T07:22:39;16.77;;;6.07;;
47866;SDS011;33628;50.806;11.586;2024-01-15T07:25:06;13.30;;;6.65;;
47866;SDS011;33628;50.806;11.586;2024-01-15T07:27:32;17.80;;;6.55;;
47866;SDS011;33628;50.806;11.586;2024-01-15T07:29:59;12.85;;;5.75;;
47866;SDS011;33628;50.806;11.586;2024-01-15T07:32:27;14.65;;;6.93;;
47866;SDS011;33628;50.806;11.586;2024-01-15T07:34:54;15.02;;;6.32;;
47866;SDS011;33628;50.806;11.586;2024-01-15T07:37:20;14.85;;;6.53;;
47866;SDS011;33628;50.806;11.586;2024-01-15T07:39:49;13.07;;;5.88;;
47866;SDS011;33628;50.806;11.586;2024-01-15T07:42:15;15.18;;;6.13;;
47866;SDS011;33628;50.806;11.586;2024-01-15T07:44:44;15.75;;;6.30;;
47866;SDS011;33628;50.806;11.586;2024-01-15T07:47:16;11.82;;;5.20;;
47866;SDS011;33628;50.806;11.586;2024-01-15T07:49:47;11.65;;;5.20;;
47866;SDS011;33628;50.806;11.586;2024-01-15T07:52:14;11.57;;;5.45;;
47866;SDS011;33628;50.806;11.586;2024-01-15T07:54:41;18.95;;;7.47;;
47866;SDS011;33628;50.806;11.586;2024-01-15T07:57:07;12.25;;;4.88;;
47866;SDS011;33628;50.806;11.586;2024-01-15T07:59:34;13.50;;;5.75;;
47866;SDS011;33628;50.806;11.586;2024-01-15T08:02:01;15.35;;;5.65;;
47866;SDS011;33628;50.806;11.586;2024-01-15T08:04:28;12.88;;;6.03;;
47866;SDS011;33628;50.806;11.586;2024-01-15T08:06:56;13.75;;;5.88;;
47866;SDS011;33628;50.806;11.586;2024-01-15T08:09:23;11.40;;;5.40;;
47866;SDS011;33628;50.806;11.586;2024-01-15T08:11:49;17.98;;;6.22;;
47866;SDS011;33628;50.806;11.586;2024-01-15T08:14:17;11.93;;;5.13;;
47866;SDS011;33628;50.806;11.586;2024-01-15T08:16:43;15.02;;;5.75;;
47866;SDS011;33628;50.806;11.586;2024-01-15T08:19:10;17.20;;;5.63;;
47866;SDS011;33628;50.806;11.586;2024-01-15T08:21:37;11.35;;;5.80;;
47866;SDS011;33628;50.806;11.586;2024-01-15T08:24:05;18.65;;;6.30;;
47866;SDS011;33628;50.806;11.586;2024-01-15T08:26:32;37.65;;;10.38;;
47866;SDS011;33628;50.806;11.586;2024-01-15T08:28:58;25.10;;;7.00;;
47866;SDS011;33628;50.806;11.586;2024-01-15T08:31:25;12.80;;;5.53;;
47866;SDS011;33628;50.806;11.586;2024-01-15T08:33:52;15.77;;;6.45;;
47866;SDS011;33628;50.806;11.586;2024-01-15T08:36:18;14.27;;;6.00;;
47866;SDS011;33628;50.806;11.586;2024-01-15T08:38:45;11.35;;;5.22;;
47866;SDS011;33628;50.806;11.586;2024-01-15T08:41:13;13.05;;;5.18;;
47866;SDS011;33628;50.806;11.586;2024-01-15T08:43:40;15.32;;;6.07;;
47866;SDS011;33628;50.806;11.586;2024-01-15T08:46:06;15.48;;;5.53;;
47866;SDS011;33628;50.806;11.586;2024-01-15T08:48:36;10.52;;;4.85;;
47866;SDS011;33628;50.806;11.586;2024-01-15T08:51:02;11.10;;;5.72;;
47866;SDS011;33628;50.806;11.586;2024-01-15T08:53:29;13.73;;;5.15;;
47866;SDS011;33628;50.806;11.586;2024-01-15T08:55:56;14.10;;;5.25;;
47866;SDS011;33628;50.806;11.586;2024-01-15T08:58:24;11.65;;;5.38;;
47866;SDS011;33628;50.806;11.586;2024-01-15T09:00:51;12.48;;;6.15;;
47866;SDS011;33628;50.806;11.586;2024-01-15T09:03:17;15.40;;;5.80;;
47866;SDS011;33628;50.806;11.586;2024-01-15T09:05:44;14.18;;;6.13;;
47866;SDS011;33628;50.806;11.586;2024-01-15T09:08:11;11.13;;;5.55;;
47866;SDS011;33628;50.806;11.586;2024-01-15T09:10:37;16.17;;;5.75;;
47866;SDS011;33628;50.806;11.586;2024-01-15T09:13:04;14.60;;;6.05;;
47866;SDS011;33628;50.806;11.586;2024-01-15T09:15:32;13.80;;;6.45;;
47866;SDS011;33628;50.806;11.586;2024-01-15T09:17:59;12.20;;;5.68;;
47866;SDS011;33628;50.806;11.586;2024-01-15T09:20:27;8.93;;;4.43;;
47866;SDS011;33628;50.806;11.586;2024-01-15T09:22:54;12.32;;;4.32;;
47866;SDS011;33628;50.806;11.586;2024-01-15T09:25:21;13.13;;;5.65;;
47866;SDS011;33628;50.806;11.586;2024-01-15T09:27:47;17.02;;;4.80;;
47866;SDS011;33628;50.806;11.586;2024-01-15T09:30:14;13.82;;;5.85;;
47866;SDS011;33628;50.806;11.586;2024-01-15T09:32:42;12.55;;;5.53;;
47866;SDS011;33628;50.806;11.586;2024-01-15T09:35:09;11.80;;;5.63;;
47866;SDS011;33628;50.806;11.586;2024-01-15T09:37:36;14.13;;;5.70;;
47866;SDS011;33628;50.806;11.586;2024-01-15T09:40:03;10.98;;;5.07;;
47866;SDS011;33628;50.806;11.586;2024-01-15T09:42:32;14.90;;;6.03;;
47866;SDS011;33628;50.806;11.586;2024-01-15T09:44:59;12.77;;;5.40;;
47866;SDS011;33628;50.806;11.586;2024-01-15T09:47:26;11.93;;;5.30;;
47866;SDS011;33628;50.806;11.586;2024-01-15T09:49:54;10.55;;;4.28;;
47866;SDS011;33628;50.806;11.586;2024-01-15T09:52:21;10.75;;;4.78;;
47866;SDS011;33628;50.806;11.586;2024-01-15T09:54:48;12.25;;;4.18;;
47866;SDS011;33628;50.806;11.586;2024-01-15T09:57:16;10.93;;;4.63;;
47866;SDS011;33628;50.806;11.586;2024-01-15T09:59:43;10.85;;;4.80;;
47866;SDS011;33628;50.806;11.586;2024-01-15T10:02:09;14.93;;;5.35;;
47866;SDS011;33628;50.806;11.586;2024-01-15T10:04:43;45.42;;;12.20;;
47866;SDS011;33628;50.806;11.586;2024-01-15T10:07:11;12.70;;;4.95;;
47866;SDS011;33628;50.806;11.586;2024-01-15T10:09:40;10.02;;;4.43;;
47866;SDS011;33628;50.806;11.586;2024-01-15T10:12:07;9.00;;;4.47;;
47866;SDS011;33628;50.806;11.586;2024-01-15T10:14:34;14.70;;;5.22;;
47866;SDS011;33628;50.806;11.586;2024-01-15T10:17:03;13.90;;;4.65;;
47866;SDS011;33628;50.806;11.586;2024-01-15T10:19:39;7.45;;;3.60;;
47866;SDS011;33628;50.806;11.586;2024-01-15T10:22:07;10.60;;;4.90;;
47866;SDS011;33628;50.806;11.586;2024-01-15T10:24:36;12.18;;;5.55;;
47866;SDS011;33628;50.806;11.586;2024-01-15T10:27:06;15.45;;;6.75;;
47866;SDS011;33628;50.806;11.586;2024-01-15T10:29:33;12.50;;;5.75;;
47866;SDS011;33628;50.806;11.586;2024-01-15T10:32:00;12.50;;;5.15;;
47866;SDS011;33628;50.806;11.586;2024-01-15T10:34:27;13.50;;;5.68;;
47866;SDS011;33628;50.806;11.586;2024-01-15T10:36:53;13.30;;;5.40;;
47866;SDS011;33628;50.806;11.586;2024-01-15T10:39:23;11.57;;;4.47;;
47866;SDS011;33628;50.806;11.586;2024-01-15T10:41:51;8.98;;;3.95;;
47866;SDS011;33628;50.806;11.586;2024-01-15T10:44:18;18.10;;;5.90;;
47866;SDS011;33628;50.806;11.586;2024-01-15T10:46:45;12.27;;;4.32;;
47866;SDS011;33628;50.806;11.586;2024-01-15T10:49:13;15.50;;;5.45;;
47866;SDS011;33628;50.806;11.586;2024-01-15T10:51:39;11.88;;;4.30;;
47866;SDS011;33628;50.806;11.586;2024-01-15T10:54:06;11.80;;;5.18;;
47866;SDS011;33628;50.806;11.586;2024-01-15T10:56:36;8.60;;;3.67;;
47866;SDS011;33628;50.806;11.586;2024-01-15T10:59:05;11.40;;;4.72;;
47866;SDS011;33628;50.806;11.586;2024-01-15T11:01:33;8.20;;;4.22;;
47866;SDS011;33628;50.806;11.586;2024-01-15T11:04:00;8.35;;;3.75;;
47866;SDS011;33628;50.806;11.586;2024-01-15T11:06:27;11.98;;;3.85;;
47866;SDS011;33628;50.806;11.586;2024-01-15T11:08:54;10.40;;;4.45;;
47866;SDS011;33628;50.806;11.586;2024-01-15T11:11:22;13.40;;;5.38;;
47866;SDS011;33628;50.806;11.586;2024-01-15T11:13:49;11.52;;;4.72;;
47866;SDS011;33628;50.806;11.586;2024-01-15T11:16:19;14.55;;;5.18;;
47866;SDS011;33628;50.806;11.586;2024-01-15T11:19:02;12.57;;;4.80;;
47866;SDS011;33628;50.806;11.586;2024-01-15T11:21:29;13.77;;;5.28;;
47866;SDS011;33628;50.806;11.586;2024-01-15T11:23:56;10.90;;;4.35;;
47866;SDS011;33628;50.806;11.586;2024-01-15T11:26:36;15.90;;;4.78;;
47866;SDS011;33628;50.806;11.586;2024-01-15T11:29:03;8.15;;;3.72;;
47866;SDS011;33628;50.806;11.586;2024-01-15T11:37:26;8.90;;;3.67;;
47866;SDS011;33628;50.806;11.586;2024-01-15T11:39:54;11.75;;;4.47;;
47866;SDS011;33628;50.806;11.586;2024-01-15T11:42:22;7.68;;;3.88;;
47866;SDS011;33628;50.806;11.586;2024-01-15T11:44:49;12.48;;;4.50;;
47866;SDS011;33628;50.806;11.586;2024-01-15T11:47:21;10.38;;;4.35;;
47866;SDS011;33628;50.806;11.586;2024-01-15T11:50:04;10.10;;;3.60;;
47866;SDS011;33628;50.806;11.586;2024-01-15T11:52:34;5.15;;;2.35;;
47866;SDS011;33628;50.806;11.586;2024-01-15T11:55:02;7.90;;;2.65;;
47866;SDS011;33628;50.806;11.586;2024-01-15T11:57:45;7.43;;;2.92;;
47866;SDS011;33628;50.806;11.586;2024-01-15T12:00:13;3.58;;;1.92;;
47866;SDS011;33628;50.806;11.586;2024-01-15T12:02:42;4.22;;;2.28;;
47866;SDS011;33628;50.806;11.586;2024-01-15T12:05:10;5.70;;;2.70;;
47866;SDS011;33628;50.806;11.586;2024-01-15T12:07:38;8.10;;;2.83;;
47866;SDS011;33628;50.806;11.586;2024-01-15T12:10:08;4.40;;;2.30;;
47866;SDS011;33628;50.806;11.586;2024-01-15T12:12:39;10.18;;;3.17;;
47866;SDS011;33628;50.806;11.586;2024-01-15T12:15:10;9.68;;;3.83;;
47866;SDS011;33628;50.806;11.586;2024-01-15T12:17:37;9.02;;;3.72;;
47866;SDS011;33628;50.806;11.586;2024-01-15T12:20:06;10.80;;;3.92;;
47866;SDS011;33628;50.806;11.586;2024-01-15T12:22:33;10.60;;;4.40;;
47866;SDS011;33628;50.806;11.586;2024-01-15T12:24:59;11.20;;;4.75;;
47866;SDS011;33628;50.806;11.586;2024-01-15T12:27:26;9.45;;;4.53;;
47866;SDS011;33628;50.806;11.586;2024-01-15T12:29:52;8.90;;;3.92;;
47866;SDS011;33628;50.806;11.586;2024-01-15T12:32:19;10.20;;;4.60;;
47866;SDS011;33628;50.806;11.586;2024-01-15T12:34:49;5.05;;;3.10;;
47866;SDS011;33628;50.806;11.586;2024-01-15T12:37:19;8.82;;;3.47;;
47866;SDS011;33628;50.806;11.586;2024-01-15T12:39:45;10.55;;;4.75;;
47866;SDS011;33628;50.806;11.586;2024-01-15T12:42:13;7.60;;;2.97;;
47866;SDS011;33628;50.806;11.586;2024-01-15T12:44:42;14.52;;;5.25;;
47866;SDS011;33628;50.806;11.586;2024-01-15T12:47:09;9.77;;;4.22;;
47866;SDS011;33628;50.806;11.586;2024-01-15T12:49:36;5.22;;;3.00;;
47866;SDS011;33628;50.806;11.586;2024-01-15T12:52:03;7.68;;;3.60;;
47866;SDS011;33628;50.806;11.586;2024-01-15T12:54:31;7.28;;;2.80;;
47866;SDS011;33628;50.806;11.586;2024-01-15T12:56:58;11.32;;;3.53;;
47866;SDS011;33628;50.806;11.586;2024-01-15T12:59:24;9.82;;;3.80;;
47866;SDS011;33628;50.806;11.586;2024-01-15T13:01:51;10.18;;;4.03;;
47866;SDS011;33628;50.806;11.586;2024-01-15T13:04:21;5.60;;;2.72;;
47866;SDS011;33628;50.806;11.586;2024-01-15T13:06:47;6.75;;;3.67;;
47866;SDS011;33628;50.806;11.586;2024-01-15T13:09:15;8.20;;;3.65;;
47866;SDS011;33628;50.806;11.586;2024-01-15T13:11:44;5.40;;;2.45;;
47866;SDS011;33628;50.806;11.586;2024-01-15T13:14:10;5.13;;;2.67;;
47866;SDS011;33628;50.806;11.586;2024-01-15T13:16:37;9.93;;;3.60;;
47866;SDS011;33628;50.806;11.586;2024-01-15T13:19:04;6.53;;;3.45;;
47866;SDS011;33628;50.806;11.586;2024-01-15T13:21:30;8.23;;;3.30;;
47866;SDS011;33628;50.806;11.586;2024-01-15T13:23:57;11.82;;;3.58;;
47866;SDS011;33628;50.806;11.586;2024-01-15T13:26:23;8.20;;;3.50;;
47866;SDS011;33628;50.806;11.586;2024-01-15T13:28:52;9.07;;;4.70;;
47866;SDS011;33628;50.806;11.586;2024-01-15T13:31:19;10.18;;;4.57;;
47866;SDS011;33628;50.806;11.586;2024-01-15T13:33:46;13.65;;;4.20;;
47866;SDS011;33628;50.806;11.586;2024-01-15T13:36:13;9.55;;;4.00;;
47866;SDS011;33628;50.806;11.586;2024-01-15T13:38:39;7.05;;;3.30;;
47866;SDS011;33628;50.806;11.586;2024-01-15T13:41:07;10.90;;;3.35;;
47866;SDS011;33628;50.806;11.586;2024-01-15T13:43:35;7.75;;;2.88;;
47866;SDS011;33628;50.806;11.586;2024-01-15T13:46:03;7.18;;;3.05;;
47866;SDS011;33628;50.806;11.586;2024-01-15T13:48:30;10.07;;;4.03;;
47866;SDS011;33628;50.806;11.586;2024-01-15T13:50:58;6.30;;;3.40;;
47866;SDS011;33628;50.806;11.586;2024-01-15T13:53:25;9.85;;;4.18;;
47866;SDS011;33628;50.806;11.586;2024-01-15T13:55:52;6.60;;;2.95;;
47866;SDS011;33628;50.806;11.586;2024-01-15T13:58:19;7.53;;;3.90;;
47866;SDS011;33628;50.806;11.586;2024-01-15T14:00:47;9.27;;;3.67;;
47866;SDS011;33628;50.806;11.586;2024-01-15T14:03:15;10.50;;;3.83;;
47866;SDS011;33628;50.806;11.586;2024-01-15T14:05:42;7.65;;;3.45;;
47866;SDS011;33628;50.806;11.586;2024-01-15T14:08:09;7.50;;;3.28;;
47866;SDS011;33628;50.806;11.586;2024-01-15T14:10:35;8.98;;;3.30;;
47866;SDS011;33628;50.806;11.586;2024-01-15T14:13:03;8.40;;;4.47;;
47866;SDS011;33628;50.806;11.586;2024-01-15T14:15:30;12.45;;;3.58;;
47866;SDS011;33628;50.806;11.586;2024-01-15T14:17:56;8.27;;;4.47;;
47866;SDS011;33628;50.806;11.586;2024-01-15T14:20:25;8.35;;;4.07;;
47866;SDS011;33628;50.806;11.586;2024-01-15T14:22:52;8.93;;;3.58;;
47866;SDS011;33628;50.806;11.586;2024-01-15T14:25:18;13.85;;;4.97;;
47866;SDS011;33628;50.806;11.586;2024-01-15T14:27:45;10.88;;;4.13;;
47866;SDS011;33628;50.806;11.586;2024-01-15T14:30:12;8.27;;;3.63;;
47866;SDS011;33628;50.806;11.586;2024-01-15T14:32:39;7.25;;;3.00;;